KHBG/HBG METAR and TAF weather

Enter ICAO airport designator
Station Type Date Time Source
KHBG METAR 2022/11/27 08:53 UTC NOAA

KHBG 270853Z AUTO VRB04KT 10SM CLR 13/10 A2987 RMK AO2 SLP114 T01330100 51018


Station Type Date Time Source
KHBG Decoded METAR 2022/11/27 08:53 UTC NOAA

HATTIESBURG CHAIN MUNICIPAL, MS, United States (KHBG) 31-16N 89-15W 44M
Nov 27, 2022 - 03:53 AM EST / 2022.11.27 0853 UTC
Wind: Variable at 5 MPH (4 KT):0
Visibility: 10 mile(s):0
Sky conditions: clear
Temperature: 55.9 F (13.3 C)
Dew Point: 50.0 F (10.0 C)
Relative Humidity: 80%
Pressure (altimeter): 29.87 in. Hg (1011 hPa)
Pressure tendency: 0.05 inches (1.8 hPa) higher than three hours ago
ob: KHBG 270853Z AUTO VRB04KT 10SM CLR 13/10 A2987 RMK AO2 SLP114 T01330100 51018
cycle: 9

Station Type Date Time Source
KHBG TAF 2022/11/27 06:54 UTC NOAA

TAF KHBG 270551Z 2706/2806 24014KT P6SM SCT025 WS020/27040KT
FM271400 26012G20KT P6SM FEW050

Example: see airport list